• Join FlightAware (Why Join?)
  • Login
  • US Flag 
12:24AM EDT


 

Airport Tracker/Info


-or-


 

Live Flight TrackerFlight Track Log ✈ SWA243 ✈ 07-Jul-2013 ✈ KDAL - KABQ

Flight Track Log - Related Links

Times and Time Zones

All times are in EDT time to prevent confusion due to time zone crossing. See the SWA243 flight status page for this flight to view local times or setup timezone preferences in your user account.

Time Position Orientation Groundspeed Altitude Reporting Facility
EDT Latitude Longitude Course Direction KTS MPH feet Rate Location/Type
10:42PM 32.8333 -96.8333 264° West 171 197 1,500  Level Dallas / Fort Worth TRACON
10:43PM 32.7833 -96.8167 164° South 224 258 3,500 2,400 Climbing Dallas / Fort Worth TRACON
10:44PM 32.7333 -96.7833 151° Southeast 235 270 6,300 2,880 Climbing Dallas / Fort Worth TRACON
10:45PM 32.6833 -96.8333 220° Southwest 236 272 9,000 2,100 Climbing Dallas / Fort Worth TRACON
10:47PM 32.6844 -96.9914 271° West 284 327 12,300 1,860 Climbing Fort Worth Center
10:48PM 32.8582 -97.6182 264° West  Level FlightAware Approximate
10:48PM 32.7097 -97.0900 287° West 329 379 14,400  Level Fort Worth Center
10:49PM 32.7392 -97.2133 286° West 355 409 16,700 1,680 Climbing Fort Worth Center
10:50PM 32.7667 -97.3244 286° West 377 434 17,800 1,320 Climbing Fort Worth Center
10:51PM 32.8019 -97.4728 286° West 404 465 19,400 1,560 Climbing Fort Worth Center
10:52PM 32.8375 -97.6161 286° West 427 491 21,000 1,860 Climbing Fort Worth Center
10:53PM 32.8664 -97.7572 284° West 448 516 23,200 2,040 Climbing Fort Worth Center
10:54PM 32.8678 -97.8958 271° West 441 507 25,100 1,560 Climbing Fort Worth Center
10:55PM 32.8653 -98.0367 269° West 441 507 26,400 1,200 Climbing Fort Worth Center
10:56PM 32.8644 -98.1825 270° West 441 507 27,600 1,140 Climbing Fort Worth Center
10:57PM 32.8614 -98.3286 269° West 441 507 28,700 1,080 Climbing Fort Worth Center
10:58PM 32.8581 -98.4744 268° West 441 507 29,800 1,140 Climbing Fort Worth Center
10:59PM 32.8881 -98.6158 284° West 431 496 31,000 1,380 Climbing Fort Worth Center
11:00PM 32.9453 -98.7503 297° West 437 503 32,600 1,500 Climbing Fort Worth Center
11:01PM 32.9958 -98.8797 295° West 437 503 34,000 1,200 Climbing Fort Worth Center
11:02PM 33.0467 -99.0044 296° West 432 497 35,100 900 Climbing Fort Worth Center
11:03PM 33.0992 -99.1344 296° West 426 490 35,800 420 Climbing Fort Worth Center
11:04PM 33.1494 -99.2619 295° West 426 490 36,000 60 Climbing Fort Worth Center
11:05PM 33.2017 -99.3944 295° West 426 490 36,000  Level Fort Worth Center
11:06PM 33.2558 -99.5275 296° West 431 496 36,000  Level Fort Worth Center
11:07PM 33.3039 -99.6553 294° West 431 496 36,000  Level Fort Worth Center
11:08PM 33.3556 -99.7861 295° West 431 496 36,000  Level Fort Worth Center
11:09PM 33.4075 -99.9142 296° West 426 490 36,000  Level Fort Worth Center
11:10PM 33.4569 -100.0428 295° West 426 490 36,000  Level Fort Worth Center
11:11PM 33.5064 -100.1711 295° West 426 490 36,000  Level Fort Worth Center
11:12PM 33.5556 -100.2997 295° West 426 490 36,000  Level Fort Worth Center
11:13PM 33.6047 -100.4336 294° West 426 490 36,000  Level Fort Worth Center
11:14PM 33.6558 -100.5653 295° West 426 490 36,000  Level Fort Worth Center
11:15PM 33.7067 -100.6969 295° West 431 496 36,000  Level Fort Worth Center
11:16PM 33.7594 -100.8311 295° West 437 503 36,000  Level Fort Worth Center
11:17PM 33.8078 -100.9631 294° West 437 503 36,000  Level Fort Worth Center
11:18PM 33.8522 -101.0875 293° West 442 509 36,000  Level Fort Worth Center
11:19PM 33.9086 -101.2300 296° West 440 506 36,000  Level Fort Worth Center
11:20PM 33.9528 -101.3494 294° West 434 499 36,000  Level Fort Worth Center
11:21PM 34.0067 -101.4947 294° West 429 494 36,000  Level Fort Worth Center
11:22PM 34.0486 -101.6094 294° West 419 482 36,000  Level Fort Worth Center
11:23PM 34.1022 -101.7500 295° West 419 482 36,000  Level Fort Worth Center
11:24PM 34.1608 -101.9139 293° West 423 487 36,000  Level Albuquerque Center
11:25PM 34.2086 -102.0439 294° West 423 487 36,000  Level Albuquerque Center
11:26PM 34.2561 -102.1756 294° West 424 488 36,000  Level Albuquerque Center
11:27PM 34.3036 -102.3053 294° West 423 487 36,000  Level Albuquerque Center
11:28PM 34.3519 -102.4383 294° West 427 491 36,000  Level Albuquerque Center
11:29PM 34.3994 -102.5722 293° West 430 495 36,000  Level Albuquerque Center
11:30PM 34.4483 -102.7064 294° West 432 497 36,000  Level Albuquerque Center
11:31PM 34.5011 -102.8653 292° West 433 498 36,000  Level Albuquerque Center
11:32PM 34.5164 -103.0144 277° West 437 503 36,000 -480 Level Albuquerque Center
11:33PM 34.5347 -103.1619 279° West 440 506 35,100 -1,020 Descending Albuquerque Center
11:35PM 34.5519 -103.3078 278° West 436 502 34,000 -1,020 Descending Albuquerque Center
11:36PM 34.5692 -103.4542 278° West 434 499 33,100 -960 Descending Albuquerque Center
11:37PM 34.5869 -103.6011 278° West 436 502 32,100 -600 Descending Albuquerque Center
11:38PM 34.6225 -103.7417 287° West 432 497 32,000 -60 Descending Albuquerque Center
11:39PM 34.6558 -103.8781 287° West 420 483 32,000  Level Albuquerque Center
11:40PM 34.6900 -104.0172 287° West 423 487 32,000  Level Albuquerque Center
11:41PM 34.7253 -104.1611 287° West 434 499 32,000  Level Albuquerque Center
11:42PM 34.7608 -104.3089 286° West 445 512 32,000  Level Albuquerque Center
11:43PM 34.7956 -104.4536 286° West 442 509 32,000 -300 Level Albuquerque Center
11:44PM 34.8253 -104.5981 284° West 438 504 31,500 -720 Descending Albuquerque Center
11:45PM 34.8406 -104.7503 277° West 446 513 30,600 -900 Descending Albuquerque Center
11:46PM 34.8575 -104.9039 278° West 449 517 29,700 -960 Descending Albuquerque Center
11:47PM 34.8731 -105.0539 277° West 446 513 28,700 -1,020 Descending Albuquerque Center
11:48PM 34.8886 -105.1992 277° West 433 498 27,700 -1,020 Descending Albuquerque Center
11:49PM 34.9036 -105.3422 277° West 425 489 26,700 -1,020 Descending Albuquerque Center
11:50PM 34.9181 -105.4831 277° West 419 482 25,700 -1,080 Descending Albuquerque Center
11:51PM 34.9342 -105.6469 277° West 415 478 24,600 -1,020 Descending Albuquerque Center
11:52PM 34.9458 -105.7928 276° West 412 474 23,600 -900 Descending Albuquerque Center
11:53PM 34.9608 -105.9264 278° West 416 479 22,800 -1,380 Descending Albuquerque Center
11:54PM 34.9756 -106.0750 277° West 427 491 20,900 -1,860 Descending Albuquerque Center
11:55PM 34.9864 -106.2083 276° West 410 472 19,100 -2,340 Descending Albuquerque Center
11:56PM 34.9764 -106.3403 265° West 393 452 16,200 -2,820 Descending Albuquerque Center
11:57PM 34.9650 -106.4758 264° West 399 459 13,400 -1,680 Descending Albuquerque Center
11:58PM 34.9364 -106.5847 252° West 357 411 12,800 -1,560 Descending Albuquerque Center
11:59PM 34.8906 -106.6578 233° Southwest 292 336 10,300 -1,740 Descending Albuquerque Center
12:00AM 34.8572 -106.7231 238° Southwest 255 293 9,300 -1,200 Descending Albuquerque Center
12:01AM 34.9039 -106.7375 346° North 217 250 7,900 -1,140 Descending Albuquerque Center
12:02AM 34.9481 -106.7117 26° Northeast 192 221 7,000 -780 Descending Albuquerque Center
12:03AM 34.9856 -106.6769 37° Northeast 179 206 6,400 -780 Descending Albuquerque Center
12:04AM 35.0169 -106.6350 48° Northeast 172 198 5,500 -600 Descending Albuquerque Center
12:05AM 35.0489 -106.5953 46° Northeast 171 197 5,300 -240 Descending Albuquerque Center